createdAt,value
2022-12-15T10:23:50.421Z,80.05
2022-12-15T10:25:12.217Z,80.38
2022-12-15T10:26:19.423Z,80.75
2022-12-15T10:28:09.159Z,80.69
2022-12-15T10:29:40.424Z,80.65
2022-12-15T10:30:55.579Z,80.65
2022-12-15T10:32:05.396Z,80.50
2022-12-15T10:33:15.033Z,80.53
2022-12-15T10:34:44.554Z,80.42
2022-12-15T10:35:49.022Z,80.17
2022-12-15T10:36:53.453Z,80.27
2022-12-15T10:38:05.395Z,80.02
2022-12-15T10:39:11.604Z,80.11
2022-12-15T10:40:20.065Z,80.02
2022-12-15T10:41:26.052Z,80.29
2022-12-15T10:42:29.775Z,79.86
2022-12-15T10:43:39.404Z,79.67
2022-12-15T10:44:50.598Z,78.68
2022-12-15T10:46:07.177Z,79.24
2022-12-15T10:47:23.106Z,79.31
2022-12-15T10:48:26.078Z,79.29
2022-12-15T10:49:29.067Z,79.27
2022-12-15T10:50:34.073Z,79.13
2022-12-15T10:51:44.545Z,79.38
2022-12-15T10:52:49.474Z,79.30
2022-12-15T10:54:03.384Z,79.54
2022-12-15T10:55:31.583Z,79.17
2022-12-15T10:56:45.854Z,78.72
2022-12-15T10:58:02.696Z,79.01
2022-12-15T10:59:24.570Z,78.91
2022-12-15T11:00:30.656Z,78.65
2022-12-15T11:01:35.679Z,78.35
2022-12-15T11:02:39.288Z,78.35
2022-12-15T11:03:43.280Z,78.24
2022-12-15T11:05:15.816Z,78.06
2022-12-15T11:06:22.624Z,77.97
2022-12-15T11:07:37.997Z,78.26
2022-12-15T11:08:42.324Z,78.31
2022-12-15T11:09:48.540Z,78.14
2022-12-15T11:11:15.847Z,78.34
2022-12-15T11:12:40.072Z,78.18
2022-12-15T11:14:04.712Z,77.24
2022-12-15T11:15:23.064Z,77.54
2022-12-15T11:16:26.081Z,77.72
2022-12-15T11:17:40.641Z,77.39
2022-12-15T11:18:58.847Z,77.63
2022-12-15T11:20:17.208Z,77.37
2022-12-15T11:21:35.238Z,77.53
2022-12-15T11:22:53.361Z,77.57
2022-12-15T11:24:11.534Z,77.32
2022-12-15T11:25:29.504Z,77.37
2022-12-15T11:27:00.658Z,77.37
2022-12-15T11:28:09.644Z,77.05
2022-12-15T11:29:57.833Z,76.84
2022-12-15T11:31:20.502Z,76.18
2022-12-15T11:32:28.019Z,76.04
2022-12-15T11:33:31.499Z,75.99
2022-12-15T11:34:47.814Z,76.55
2022-12-15T11:36:09.736Z,76.09
2022-12-15T11:37:18.083Z,75.28
2022-12-15T11:38:48.883Z,75.42
2022-12-15T11:40:18.688Z,75.21
2022-12-15T11:41:39.832Z,74.23
2022-12-15T11:42:51.969Z,72.97
2022-12-15T11:44:21.225Z,73.82
2022-12-15T11:46:01.311Z,73.59
2022-12-15T11:47:19.730Z,73.49
2022-12-15T11:48:33.903Z,72.23
2022-12-15T11:49:47.948Z,72.99
2022-12-15T11:51:13.306Z,73.84
2022-12-15T11:52:34.672Z,73.80
2022-12-15T11:53:56.699Z,73.58
2022-12-15T11:55:13.020Z,72.95
2022-12-15T11:56:26.181Z,72.62
2022-12-15T11:58:04.616Z,71.55
2022-12-15T11:59:16.565Z,71.23
2022-12-15T12:00:23.543Z,70.72
2022-12-15T12:01:57.021Z,70.64
2022-12-15T12:03:41.178Z,71.79
2022-12-15T12:04:47.272Z,71.84
2022-12-15T12:06:08.574Z,71.63
2022-12-15T12:07:18.339Z,70.36
2022-12-15T12:08:40.378Z,70.81
2022-12-15T12:09:59.429Z,71.26
2022-12-15T12:11:17.005Z,70.80
2022-12-15T12:12:30.410Z,69.77
2022-12-15T12:14:08.086Z,69.15
2022-12-15T12:15:30.025Z,69.76
2022-12-15T12:16:39.737Z,69.10
2022-12-15T12:17:50.270Z,69.81
2022-12-15T12:19:04.483Z,69.91
2022-12-15T12:20:36.165Z,69.81
2022-12-15T12:21:44.309Z,70.30
2022-12-15T12:23:04.755Z,70.55
2022-12-15T12:24:21.264Z,70.08
2022-12-15T12:25:25.815Z,69.33
2022-12-15T12:26:28.766Z,69.75
2022-12-15T12:27:48.729Z,69.57
2022-12-15T12:29:00.982Z,69.71
2022-12-15T12:30:25.286Z,70.38
2022-12-15T12:32:00.540Z,70.63
2022-12-15T12:33:14.154Z,70.72
2022-12-15T12:34:29.388Z,70.97
2022-12-15T12:35:44.710Z,71.00
2022-12-15T12:36:49.161Z,71.08
2022-12-15T12:38:03.210Z,70.96
2022-12-15T12:39:16.225Z,71.14
2022-12-15T12:40:38.405Z,70.80
2022-12-15T12:41:50.752Z,70.89
2022-12-15T12:42:56.666Z,70.47
2022-12-15T12:44:11.314Z,70.49
2022-12-15T12:45:15.034Z,70.51
2022-12-15T12:46:27.700Z,70.35
2022-12-15T12:47:35.498Z,70.35
2022-12-15T12:49:07.231Z,70.78
2022-12-15T12:50:26.109Z,70.55
2022-12-15T12:51:38.124Z,70.90
2022-12-15T12:52:55.610Z,70.72
2022-12-15T12:54:00.130Z,70.35
2022-12-15T12:55:23.914Z,70.64
2022-12-15T12:56:43.328Z,70.11
2022-12-15T12:57:47.523Z,70.20
2022-12-15T12:58:53.197Z,69.80
2022-12-15T13:00:13.043Z,70.19
2022-12-15T13:01:33.466Z,70.12
2022-12-15T13:02:39.349Z,70.05
2022-12-15T13:03:43.634Z,70.50
2022-12-15T13:04:50.875Z,69.66
2022-12-15T13:05:54.820Z,69.62
2022-12-15T13:07:02.346Z,69.45
2022-12-15T13:08:05.279Z,69.67
2022-12-15T13:09:17.632Z,68.97
2022-12-15T13:10:22.497Z,68.78
2022-12-15T13:11:53.828Z,68.94
2022-12-15T13:13:19.173Z,69.28
2022-12-15T13:14:31.764Z,69.40
2022-12-15T13:15:42.991Z,68.87
2022-12-15T13:17:08.434Z,69.04
2022-12-15T13:18:20.615Z,68.49
2022-12-15T13:19:58.612Z,68.57
2022-12-15T13:21:34.802Z,68.62
2022-12-15T13:22:39.982Z,68.61
2022-12-15T13:23:43.129Z,68.79
2022-12-15T13:24:50.387Z,68.83
2022-12-15T13:25:56.611Z,68.46
2022-12-15T13:27:19.906Z,68.69
2022-12-15T13:28:35.540Z,68.68
2022-12-15T13:29:55.018Z,68.60
2022-12-15T13:31:20.830Z,68.13
2022-12-15T13:32:31.563Z,68.43
2022-12-15T13:33:50.163Z,67.77
2022-12-15T13:34:53.397Z,68.04
2022-12-15T13:35:57.900Z,67.91
2022-12-15T13:37:02.874Z,67.97
2022-12-15T13:38:17.449Z,68.18
2022-12-15T13:39:20.397Z,67.92
2022-12-15T13:40:23.770Z,68.02
2022-12-15T13:41:26.859Z,67.97
2022-12-15T13:43:57.807Z,68.05
2022-12-15T13:45:24.595Z,67.68
2022-12-15T13:46:33.427Z,67.78
2022-12-15T13:47:37.979Z,67.98
2022-12-15T13:48:45.720Z,67.67
2022-12-15T13:50:02.093Z,67.53
2022-12-15T13:51:18.017Z,67.85
2022-12-15T13:54:25.221Z,68.18
2022-12-15T13:55:35.784Z,68.01
2022-12-15T13:56:41.913Z,67.63
2022-12-15T13:58:02.974Z,67.41
2022-12-15T13:59:16.410Z,67.64
2022-12-15T14:00:20.321Z,67.92
2022-12-15T14:01:33.231Z,68.04
2022-12-15T14:02:37.440Z,67.89
2022-12-15T14:03:55.969Z,68.11
2022-12-15T14:05:17.528Z,68.14
2022-12-15T14:06:20.889Z,68.52
2022-12-15T14:07:23.925Z,68.73
2022-12-15T14:08:30.228Z,68.76
2022-12-15T14:09:41.218Z,68.73
2022-12-15T14:10:51.299Z,68.70
2022-12-15T14:11:54.647Z,68.81
2022-12-15T14:13:01.551Z,68.39
2022-12-15T14:14:05.039Z,68.06
2022-12-15T14:15:20.142Z,67.71
2022-12-15T14:16:24.590Z,67.85
2022-12-15T14:17:28.251Z,67.74
2022-12-15T14:18:36.226Z,68.04
2022-12-15T14:19:44.976Z,68.08
2022-12-15T14:20:48.531Z,68.24
2022-12-15T14:21:54.952Z,68.48
2022-12-15T14:22:59.007Z,68.39
2022-12-15T14:24:37.004Z,68.66
2022-12-15T14:25:31.757Z,68.57
2022-12-15T14:26:34.931Z,68.67
2022-12-15T14:27:37.968Z,68.63
2022-12-15T14:28:46.642Z,68.51
2022-12-15T14:30:13.745Z,68.59
2022-12-15T14:31:21.348Z,68.59
2022-12-15T14:32:25.134Z,68.73
2022-12-15T14:33:29.902Z,68.72
2022-12-15T14:34:38.884Z,68.73
2022-12-15T14:35:44.131Z,68.62
2022-12-15T14:36:56.111Z,68.58
2022-12-15T14:38:02.742Z,68.83
2022-12-15T14:39:21.238Z,68.77
2022-12-15T14:40:28.960Z,68.81
2022-12-15T14:41:37.283Z,69.12
2022-12-15T14:42:41.420Z,69.16
2022-12-15T14:43:44.627Z,69.34
2022-12-15T14:45:21.134Z,69.25
2022-12-15T14:46:27.208Z,69.36
2022-12-15T14:47:33.928Z,69.42
2022-12-15T14:48:41.703Z,69.51
2022-12-15T14:49:46.438Z,69.54
2022-12-15T14:50:51.243Z,69.80
2022-12-15T14:52:00.704Z,69.88
2022-12-15T14:53:13.950Z,69.88
2022-12-15T14:54:59.819Z,70.05
2022-12-15T14:56:27.597Z,70.08
2022-12-15T14:57:45.471Z,70.16
2022-12-15T14:59:18.917Z,70.13
2022-12-15T15:00:50.277Z,70.35
2022-12-15T15:01:59.715Z,70.42
2022-12-15T15:03:05.499Z,68.11
2022-12-15T15:03:18.761Z,70.62
2022-12-15T15:04:31.359Z,70.63
2022-12-15T15:05:34.937Z,70.85
2022-12-15T15:06:40.185Z,70.93
2022-12-15T15:07:45.599Z,70.87
2022-12-15T15:08:53.148Z,70.74
2022-12-15T15:09:56.579Z,71.14
2022-12-15T15:11:29.706Z,70.99
2022-12-15T15:12:46.210Z,71.11
2022-12-15T15:13:56.163Z,71.10
2022-12-15T15:15:04.832Z,71.28
2022-12-15T15:16:16.373Z,71.31
2022-12-15T15:17:25.725Z,71.58
2022-12-15T15:18:29.837Z,71.57
2022-12-15T15:19:39.690Z,71.73
2022-12-15T15:20:54.903Z,72.07
2022-12-15T15:22:01.103Z,72.14
2022-12-15T15:23:04.093Z,71.96
2022-12-15T15:24:10.788Z,72.08
2022-12-15T15:25:29.341Z,71.94
2022-12-15T15:26:33.383Z,72.07
2022-12-15T15:27:39.930Z,72.16
2022-12-15T15:28:45.027Z,72.17
2022-12-15T15:29:49.053Z,72.16
2022-12-15T15:30:56.081Z,72.12
2022-12-15T15:32:18.176Z,72.24
2022-12-15T15:33:22.430Z,72.17
2022-12-15T15:34:26.091Z,72.28
2022-12-15T15:35:31.632Z,72.30
2022-12-15T15:36:37.718Z,72.28
2022-12-15T15:37:40.761Z,72.50
2022-12-15T15:38:46.636Z,72.50
2022-12-15T15:39:54.510Z,72.62
2022-12-15T15:41:22.957Z,72.75
2022-12-15T15:42:32.224Z,72.84
2022-12-15T15:43:36.326Z,72.80
2022-12-15T15:44:40.438Z,73.05
2022-12-15T15:45:43.821Z,73.15
2022-12-15T15:46:50.183Z,73.02
2022-12-15T15:47:56.060Z,73.06
2022-12-15T15:49:07.345Z,73.17
2022-12-15T15:50:14.447Z,73.25
2022-12-15T15:51:18.616Z,73.35
2022-12-15T15:52:22.962Z,73.34
2022-12-15T15:53:27.944Z,73.51
2022-12-15T15:54:37.915Z,73.74
2022-12-15T15:55:42.562Z,74.04
2022-12-15T15:56:45.637Z,73.83
2022-12-15T15:57:48.809Z,73.87
2022-12-15T15:58:51.942Z,73.98
2022-12-15T15:59:55.360Z,73.91
2022-12-15T16:00:58.598Z,74.11
2022-12-15T16:02:02.344Z,73.96
2022-12-15T16:03:06.638Z,74.72
2022-12-15T16:04:12.340Z,74.54
2022-12-15T16:05:15.578Z,74.70
2022-12-15T16:06:21.072Z,74.41
2022-12-15T16:07:28.001Z,74.32
2022-12-15T16:08:36.510Z,74.64
2022-12-15T16:09:39.914Z,74.56
2022-12-15T16:10:48.681Z,74.57
2022-12-15T16:11:51.711Z,74.59
2022-12-15T16:12:57.542Z,74.52
2022-12-15T16:14:01.802Z,74.64
2022-12-15T16:15:20.394Z,74.61
2022-12-15T16:16:28.353Z,74.98
2022-12-15T16:17:31.353Z,74.93
2022-12-15T16:18:35.344Z,74.78
2022-12-15T16:19:39.917Z,74.87
2022-12-15T16:20:46.482Z,75.21
2022-12-15T16:21:51.009Z,75.08
2022-12-15T16:22:58.405Z,74.95
2022-12-15T16:24:10.005Z,75.21
2022-12-15T16:25:17.429Z,75.15
2022-12-15T16:26:32.393Z,74.87
2022-12-15T16:27:35.479Z,75.18
2022-12-15T16:28:38.568Z,75.24
2022-12-15T16:29:42.139Z,75.24
2022-12-15T16:30:45.733Z,75.54
2022-12-15T16:31:49.090Z,75.28
2022-12-15T16:32:53.448Z,75.56
2022-12-15T16:33:59.032Z,75.18
2022-12-15T16:35:02.147Z,75.79
2022-12-15T16:36:14.010Z,75.51
2022-12-15T16:37:39.681Z,75.52
2022-12-15T16:38:43.350Z,76.11
2022-12-15T16:39:46.341Z,75.75
2022-12-15T16:40:49.387Z,75.62
2022-12-15T16:41:55.670Z,75.94
2022-12-15T16:43:01.117Z,75.93
2022-12-15T16:44:04.313Z,76.02
2022-12-15T16:45:18.627Z,76.21
2022-12-15T16:46:21.874Z,76.14
2022-12-15T16:47:24.986Z,75.99
2022-12-15T16:48:28.366Z,75.87
2022-12-15T16:49:38.099Z,76.23
2022-12-15T16:50:55.361Z,76.05
2022-12-15T16:51:58.927Z,76.23
2022-12-15T16:53:04.154Z,76.03
2022-12-15T16:54:12.898Z,76.16
2022-12-15T16:55:28.277Z,75.99
2022-12-15T16:56:31.387Z,76.22
2022-12-15T16:57:35.177Z,76.09
2022-12-15T16:58:38.223Z,75.92
2022-12-15T16:59:41.430Z,76.30
2022-12-15T17:00:45.377Z,75.98
2022-12-15T17:01:48.535Z,76.16
2022-12-15T17:02:53.401Z,76.54
2022-12-15T17:03:57.154Z,76.26
2022-12-15T17:05:00.314Z,76.53
2022-12-15T17:06:06.700Z,76.46
2022-12-15T17:07:19.558Z,76.25
2022-12-15T17:08:43.841Z,76.33
2022-12-15T17:09:47.068Z,76.58
2022-12-15T17:10:51.064Z,76.51
2022-12-15T17:11:54.142Z,76.29
2022-12-15T17:13:06.730Z,76.48
2022-12-15T17:14:10.316Z,76.44
2022-12-15T17:15:23.353Z,76.52
2022-12-15T17:16:28.188Z,76.49
2022-12-15T17:17:31.595Z,76.58
2022-12-15T17:18:34.714Z,76.48
2022-12-15T17:19:37.874Z,76.61
2022-12-15T17:20:42.399Z,76.57
2022-12-15T17:21:51.834Z,76.59
2022-12-15T17:23:07.773Z,76.40
2022-12-15T17:24:15.942Z,76.45
2022-12-15T17:25:53.360Z,76.63
2022-12-15T17:26:47.976Z,76.34
2022-12-15T17:27:52.856Z,76.50
2022-12-15T17:28:59.823Z,77.08
2022-12-15T17:30:03.029Z,76.88
2022-12-15T17:31:09.849Z,76.89
2022-12-15T17:32:13.330Z,77.04
2022-12-15T17:33:25.130Z,77.32
2022-12-15T17:34:30.427Z,77.14
2022-12-15T17:35:33.753Z,77.00
2022-12-15T17:36:37.858Z,77.06
2022-12-15T17:37:41.862Z,77.29
2022-12-15T17:38:45.052Z,77.32
2022-12-15T17:39:51.588Z,77.56
2022-12-15T17:40:56.542Z,77.62
2022-12-15T17:42:01.433Z,77.55
2022-12-15T17:43:16.200Z,77.52
2022-12-15T17:44:34.371Z,77.81
2022-12-15T17:45:38.364Z,77.86
2022-12-15T17:46:41.418Z,77.92
2022-12-15T17:47:45.356Z,77.65
2022-12-15T17:48:48.422Z,77.70
2022-12-15T17:49:51.425Z,77.78
2022-12-15T17:50:54.552Z,77.87
2022-12-15T17:51:59.890Z,77.92
2022-12-15T17:53:05.621Z,77.97
2022-12-15T17:54:13.040Z,77.99
2022-12-15T17:55:33.327Z,78.29
2022-12-15T17:56:38.260Z,78.13
2022-12-15T17:57:41.399Z,78.23
2022-12-15T17:58:44.561Z,78.41
2022-12-15T17:59:47.720Z,78.19
2022-12-15T18:00:56.587Z,78.52
2022-12-15T18:01:59.778Z,78.32
2022-12-15T18:03:04.748Z,78.26
2022-12-15T18:04:09.644Z,78.59
2022-12-15T18:05:13.373Z,78.33
2022-12-15T18:06:17.612Z,78.65
2022-12-15T18:07:22.783Z,78.57
2022-12-15T18:08:27.818Z,78.39
2022-12-15T18:09:31.007Z,78.64
2022-12-15T18:10:38.156Z,78.59
2022-12-15T18:11:43.248Z,78.83
2022-12-15T18:12:46.357Z,78.87
2022-12-15T18:13:49.376Z,78.77
2022-12-15T18:14:53.589Z,78.63
2022-12-15T18:15:57.206Z,78.95
2022-12-15T18:17:00.227Z,78.91
2022-12-15T18:18:03.347Z,79.11
2022-12-15T18:19:06.510Z,78.70
2022-12-15T18:20:10.177Z,78.99
2022-12-15T18:21:15.527Z,78.89
2022-12-15T18:22:24.807Z,78.99
2022-12-15T18:23:32.393Z,78.96
2022-12-15T18:24:36.176Z,79.02
2022-12-15T18:25:40.160Z,78.98
2022-12-15T18:26:43.381Z,78.72
2022-12-15T18:27:47.211Z,78.69
2022-12-15T18:28:50.301Z,78.85
2022-12-15T18:29:53.426Z,78.76
2022-12-15T18:31:13.827Z,78.46
2022-12-15T18:32:18.671Z,78.34
2022-12-15T18:33:23.488Z,78.51
2022-12-15T18:34:26.514Z,78.46
2022-12-15T18:35:39.938Z,78.34
2022-12-15T18:36:43.410Z,78.39
2022-12-15T18:37:47.648Z,78.41
2022-12-15T18:38:50.922Z,78.62
2022-12-15T18:39:59.501Z,78.71
2022-12-15T18:41:13.254Z,78.54
2022-12-15T18:42:20.443Z,78.55
2022-12-15T18:43:25.984Z,78.59
2022-12-15T18:44:32.126Z,78.60
2022-12-15T18:45:35.167Z,78.54
2022-12-15T18:46:40.933Z,78.59
2022-12-15T18:47:46.987Z,78.38
2022-12-15T18:48:50.216Z,78.72
2022-12-15T18:49:53.170Z,78.58
2022-12-15T18:50:58.119Z,78.74
2022-12-15T18:52:01.146Z,78.86
2022-12-15T18:53:04.185Z,78.51
2022-12-15T18:54:15.301Z,78.72
2022-12-15T18:55:21.984Z,78.82
2022-12-15T18:56:25.250Z,79.10
2022-12-15T18:57:36.324Z,79.00
2022-12-15T18:58:40.163Z,79.16
2022-12-15T18:59:43.590Z,79.02
2022-12-15T19:00:47.527Z,79.29
2022-12-15T19:01:50.774Z,79.30
2022-12-15T19:02:57.303Z,79.20
2022-12-15T19:04:00.472Z,79.11
2022-12-15T19:05:03.820Z,79.26
2022-12-15T19:06:34.980Z,79.33
2022-12-15T19:07:38.159Z,79.44
2022-12-15T19:08:41.496Z,79.54
2022-12-15T19:09:44.644Z,79.50
2022-12-15T19:11:00.093Z,79.72
2022-12-15T19:12:18.365Z,79.55
2022-12-15T19:13:32.754Z,79.66
2022-12-15T19:14:42.935Z,80.03
2022-12-15T19:15:46.952Z,79.79
2022-12-15T19:17:09.146Z,79.98
2022-12-15T19:18:39.067Z,79.89
2022-12-15T19:20:00.774Z,79.86
2022-12-15T19:21:44.181Z,80.13
2022-12-15T19:22:48.838Z,80.00
2022-12-15T19:23:51.961Z,80.29
2022-12-15T19:24:55.113Z,80.35
2022-12-15T19:25:58.611Z,80.27
2022-12-15T19:27:01.769Z,80.15
2022-12-15T19:28:12.562Z,80.98
2022-12-15T19:29:19.122Z,80.89
2022-12-15T19:30:22.230Z,80.93
2022-12-15T19:31:25.330Z,81.02
2022-12-15T19:32:28.691Z,80.85
2022-12-15T19:33:32.342Z,81.15
2022-12-15T19:34:35.794Z,81.11
2022-12-15T19:35:41.860Z,81.32
2022-12-15T19:36:44.914Z,81.26
2022-12-15T19:37:50.148Z,81.58
2022-12-15T19:38:55.838Z,82.05
2022-12-15T19:40:01.522Z,81.92
2022-12-15T19:41:04.639Z,81.77
2022-12-15T19:42:19.669Z,81.84
2022-12-15T19:43:24.305Z,82.44
2022-12-15T19:44:27.530Z,82.00
2022-12-15T19:45:32.314Z,81.98
2022-12-15T19:46:35.948Z,81.99
2022-12-15T19:47:39.428Z,81.70
2022-12-15T19:48:43.484Z,81.88
2022-12-15T19:49:46.868Z,82.59
2022-12-15T19:50:51.905Z,82.22
2022-12-15T19:51:55.141Z,82.36
2022-12-15T19:53:01.534Z,82.06
2022-12-15T19:54:04.921Z,82.68
2022-12-15T19:55:16.482Z,82.51
2022-12-15T19:56:21.904Z,82.29
2022-12-15T19:57:25.029Z,82.45
2022-12-15T19:58:31.457Z,82.94
2022-12-15T19:59:34.472Z,82.50
2022-12-15T20:00:37.826Z,82.27
2022-12-15T20:01:41.018Z,82.44
2022-12-15T20:02:45.340Z,82.49
2022-12-15T20:03:51.138Z,82.11
2022-12-15T20:04:54.197Z,82.38
2022-12-15T20:05:58.946Z,82.35
2022-12-15T20:07:04.108Z,82.65
2022-12-15T20:08:07.211Z,82.50
2022-12-15T20:09:18.469Z,82.77
2022-12-15T20:10:32.159Z,82.42
2022-12-15T20:11:35.820Z,82.46
2022-12-15T20:12:38.904Z,82.33
2022-12-15T20:13:41.954Z,82.38
2022-12-15T20:14:47.148Z,82.85
2022-12-15T20:15:51.675Z,82.79
2022-12-15T20:16:55.172Z,82.63
2022-12-15T20:17:58.253Z,82.69
2022-12-15T20:19:01.505Z,82.70
2022-12-15T20:20:05.347Z,82.48
2022-12-15T20:21:09.954Z,82.49
2022-12-15T20:22:16.117Z,82.76
2022-12-15T20:23:27.699Z,82.87
2022-12-15T20:24:32.497Z,82.52
2022-12-15T20:25:37.548Z,82.72
2022-12-15T20:26:42.611Z,82.62
2022-12-15T20:27:47.670Z,82.65
2022-12-15T20:28:52.197Z,82.84
2022-12-15T20:29:55.165Z,82.76
2022-12-15T20:30:59.051Z,82.74
2022-12-15T20:32:02.202Z,82.72
2022-12-15T20:33:06.284Z,82.70
2022-12-15T20:34:09.234Z,82.79
2022-12-15T20:35:19.619Z,82.75
2022-12-15T20:36:26.369Z,83.01
2022-12-15T20:37:31.100Z,82.90
2022-12-15T20:38:34.343Z,83.00
2022-12-15T20:39:38.032Z,83.03
2022-12-15T20:40:40.949Z,82.95
2022-12-15T20:41:43.930Z,82.92
2022-12-15T20:42:50.162Z,82.99
2022-12-15T20:43:56.112Z,83.29
2022-12-15T20:44:59.149Z,83.32
2022-12-15T20:46:25.174Z,83.00
2022-12-15T20:47:28.530Z,83.04
2022-12-15T20:48:34.779Z,82.95
2022-12-15T20:49:38.167Z,83.56
2022-12-15T20:50:46.861Z,83.48
2022-12-15T20:51:50.932Z,83.64
2022-12-15T20:52:54.924Z,83.45
2022-12-15T20:54:00.727Z,83.68
2022-12-15T20:55:06.932Z,83.77
2022-12-15T20:56:10.026Z,83.70
2022-12-15T20:57:13.131Z,83.73
2022-12-15T20:58:17.116Z,83.69
2022-12-15T20:59:20.109Z,83.82
2022-12-15T21:00:23.282Z,84.35
2022-12-15T21:01:31.766Z,84.32
2022-12-15T21:02:35.021Z,84.23
2022-12-15T21:03:38.696Z,84.27
2022-12-15T21:04:42.294Z,84.36
2022-12-15T21:05:46.037Z,84.33
2022-12-15T21:06:54.454Z,84.12
2022-12-15T21:07:57.985Z,84.23
2022-12-15T21:09:01.123Z,84.45
2022-12-15T21:10:04.814Z,84.54
2022-12-15T21:11:18.481Z,84.49
2022-12-15T21:12:25.284Z,84.54
2022-12-15T21:13:33.161Z,85.23
2022-12-15T21:14:36.652Z,85.00
2022-12-15T21:15:39.793Z,84.76
2022-12-15T21:16:44.895Z,84.79
2022-12-15T21:17:58.020Z,84.70
2022-12-15T21:19:22.996Z,84.90
2022-12-15T21:20:26.359Z,84.75
2022-12-15T21:21:38.316Z,84.84
2022-12-15T21:22:41.918Z,84.72
2022-12-15T21:23:45.747Z,84.68
2022-12-15T21:24:54.214Z,85.16
2022-12-15T21:26:01.427Z,84.88
2022-12-15T21:27:04.504Z,84.94
2022-12-15T21:28:11.867Z,84.79
2022-12-15T21:29:18.089Z,84.99
2022-12-15T21:30:23.115Z,84.89
2022-12-15T21:31:26.737Z,84.84
2022-12-15T21:32:30.137Z,84.96
2022-12-15T21:33:33.373Z,85.25
2022-12-15T21:34:37.175Z,85.25
2022-12-15T21:35:41.531Z,85.15
2022-12-15T21:36:50.043Z,85.29
2022-12-15T21:37:54.934Z,85.54
2022-12-15T21:38:59.360Z,85.27
2022-12-15T21:40:02.570Z,85.37
2022-12-15T21:41:11.579Z,85.15
2022-12-15T21:42:16.762Z,85.36
2022-12-15T21:43:24.282Z,85.49
2022-12-15T21:44:27.511Z,85.49
2022-12-15T21:45:30.546Z,85.61
2022-12-15T21:46:33.561Z,85.37
2022-12-15T21:47:55.222Z,85.51
2022-12-15T21:49:20.596Z,85.36
2022-12-15T21:50:24.099Z,85.86
2022-12-15T21:51:30.101Z,85.80
2022-12-15T21:52:33.128Z,85.49
2022-12-15T21:53:36.232Z,85.64
2022-12-15T21:54:39.192Z,85.87
2022-12-15T21:55:44.572Z,85.88
2022-12-15T21:56:48.632Z,85.97
2022-12-15T21:57:52.429Z,86.15
2022-12-15T21:58:56.646Z,86.07
2022-12-15T21:59:59.607Z,86.38
2022-12-15T22:01:02.808Z,86.12
2022-12-15T22:02:24.258Z,86.49
2022-12-15T22:03:27.473Z,86.50
2022-12-15T22:04:34.211Z,87.02
2022-12-15T22:05:37.195Z,86.79
2022-12-15T22:06:40.556Z,87.09
2022-12-15T22:07:43.809Z,87.13
2022-12-15T22:08:46.870Z,86.91
2022-12-15T22:09:49.974Z,86.99
2022-12-15T22:10:54.895Z,86.96
2022-12-15T22:11:58.307Z,86.77
2022-12-15T22:13:03.097Z,86.92
2022-12-15T22:14:34.217Z,86.96
2022-12-15T22:15:37.341Z,86.93
2022-12-15T22:16:40.392Z,87.07
2022-12-15T22:17:44.388Z,87.08
2022-12-15T22:18:54.826Z,86.94
2022-12-15T22:19:58.298Z,86.87
2022-12-15T22:21:01.273Z,87.13
2022-12-15T22:22:04.229Z,87.15
2022-12-15T22:23:07.464Z,87.09
2022-12-15T22:24:11.403Z,86.98
2022-12-15T22:25:24.582Z,87.11
2022-12-15T22:26:30.012Z,86.87
2022-12-15T22:27:34.523Z,86.99
2022-12-15T22:28:37.832Z,86.69
2022-12-15T22:29:41.000Z,86.70
2022-12-15T22:30:44.088Z,86.77
2022-12-15T22:31:50.744Z,86.56
2022-12-15T22:32:55.184Z,86.60
2022-12-15T22:33:58.723Z,86.77
2022-12-15T22:35:01.886Z,86.64
2022-12-15T22:36:05.024Z,86.69
2022-12-15T22:37:08.258Z,86.45
2022-12-15T22:38:11.323Z,86.71
2022-12-15T22:39:15.161Z,86.48
2022-12-15T22:40:18.314Z,86.53
2022-12-15T22:41:23.812Z,86.61
2022-12-15T22:42:26.779Z,86.76
2022-12-15T22:43:37.830Z,86.59
2022-12-15T22:44:41.006Z,86.56
2022-12-15T22:45:44.069Z,86.49
2022-12-15T22:46:48.582Z,86.60
2022-12-15T22:47:53.542Z,86.45
2022-12-15T22:48:58.502Z,86.42
2022-12-15T22:50:02.138Z,86.60
2022-12-15T22:51:06.303Z,86.40
2022-12-15T22:52:18.839Z,86.39
2022-12-15T22:53:23.003Z,86.41
2022-12-15T22:54:29.355Z,86.30
2022-12-15T22:55:32.502Z,86.53
2022-12-15T22:56:39.894Z,86.15
2022-12-15T22:57:52.249Z,86.46
2022-12-15T22:59:01.109Z,86.20
2022-12-15T23:00:08.057Z,86.35
2022-12-15T23:01:12.137Z,86.40
2022-12-15T23:02:15.143Z,86.26
2022-12-15T23:03:19.285Z,86.18
2022-12-15T23:04:24.094Z,86.28
2022-12-15T23:05:27.261Z,86.18
2022-12-15T23:06:30.505Z,86.44
2022-12-15T23:07:39.781Z,86.45
2022-12-15T23:08:42.739Z,86.25
2022-12-15T23:09:45.654Z,86.30
2022-12-15T23:11:07.701Z,86.26
2022-12-15T23:12:12.092Z,86.30
2022-12-15T23:13:15.084Z,86.17
2022-12-15T23:14:39.352Z,86.31
2022-12-15T23:16:01.155Z,86.62
2022-12-15T23:17:04.177Z,86.30
2022-12-15T23:18:07.558Z,86.39
2022-12-15T23:19:24.114Z,86.44
2022-12-15T23:20:27.254Z,86.38
2022-12-15T23:21:30.728Z,86.29
2022-12-15T23:22:33.692Z,86.38
2022-12-15T23:23:37.895Z,86.36
2022-12-15T23:24:41.109Z,86.27
2022-12-15T23:25:45.145Z,86.37
2022-12-15T23:26:48.174Z,86.22
2022-12-15T23:27:51.604Z,86.45
2022-12-15T23:28:55.419Z,86.32
2022-12-15T23:29:58.657Z,86.39
2022-12-15T23:31:01.893Z,86.54
2022-12-15T23:32:05.132Z,86.49
2022-12-15T23:33:08.162Z,86.53
2022-12-15T23:34:11.707Z,86.58
2022-12-15T23:35:14.765Z,86.52
2022-12-15T23:36:17.824Z,86.23
2022-12-15T23:37:20.736Z,86.45
2022-12-15T23:38:25.307Z,86.73
2022-12-15T23:39:28.332Z,87.02
